createdAt,value
2019-03-25T00:04:15.151Z,19.63
2019-03-25T00:09:25.937Z,20.10
2019-03-25T00:14:33.880Z,18.97
2019-03-25T00:19:43.238Z,18.30
2019-03-25T00:24:52.689Z,17.87
2019-03-25T00:30:00.750Z,16.80
2019-03-25T00:35:09.913Z,15.10
2019-03-25T00:40:17.728Z,15.33
2019-03-25T00:45:32.435Z,13.40
2019-03-25T00:50:40.909Z,14.20
2019-03-25T00:55:50.663Z,12.00
2019-03-25T01:01:01.158Z,11.20
2019-03-25T01:06:09.277Z,10.70
2019-03-25T01:11:17.441Z,10.40
2019-03-25T01:16:25.053Z,10.10
2019-03-25T01:21:34.695Z,10.00
2019-03-25T01:26:44.328Z,9.37
2019-03-25T01:31:51.951Z,8.40
2019-03-25T01:37:03.003Z,10.10
2019-03-25T01:42:11.658Z,10.17
2019-03-25T01:47:19.352Z,9.20
2019-03-25T01:52:28.063Z,9.50
2019-03-25T01:57:39.052Z,9.03
2019-03-25T02:02:47.103Z,9.30
2019-03-25T02:07:55.303Z,8.23
2019-03-25T02:13:07.402Z,8.00
2019-03-25T02:18:15.091Z,8.80
2019-03-25T02:23:23.358Z,9.37
2019-03-25T02:28:31.118Z,9.17
2019-03-25T02:33:38.672Z,9.20
2019-03-25T02:38:50.160Z,9.87
2019-03-25T02:43:58.163Z,9.07
2019-03-25T02:49:06.280Z,9.53
2019-03-25T02:54:14.263Z,8.57
2019-03-25T02:59:24.671Z,8.90
2019-03-25T03:04:32.888Z,9.67
2019-03-25T03:09:40.865Z,8.70
2019-03-25T03:14:49.015Z,8.63
2019-03-25T03:19:56.659Z,7.97
2019-03-25T03:25:05.128Z,8.03
2019-03-25T03:30:13.154Z,6.73
2019-03-25T03:35:21.084Z,8.50
2019-03-25T03:40:29.703Z,8.60
2019-03-25T03:45:39.728Z,8.23
2019-03-25T03:50:47.676Z,9.40
2019-03-25T03:56:11.516Z,8.03
2019-03-25T04:01:05.736Z,8.80
2019-03-25T04:06:13.390Z,9.00
2019-03-25T04:11:23.473Z,9.60
2019-03-25T04:16:32.975Z,9.13
2019-03-25T04:21:43.069Z,11.03
2019-03-25T04:26:51.081Z,9.67
2019-03-25T04:31:58.923Z,10.17
2019-03-25T04:37:06.655Z,9.83
2019-03-25T04:42:15.520Z,9.40
2019-03-25T04:47:23.336Z,10.30
2019-03-25T04:52:30.952Z,9.63
2019-03-25T04:57:38.799Z,9.80
2019-03-25T05:02:46.425Z,10.13
2019-03-25T05:07:54.204Z,9.30
2019-03-25T05:13:05.273Z,9.50
2019-03-25T05:18:13.735Z,8.23
2019-03-25T05:23:22.955Z,9.10
2019-03-25T05:28:31.106Z,7.90
2019-03-25T05:33:40.985Z,8.43
2019-03-25T05:38:48.861Z,7.00
2019-03-25T05:44:02.712Z,8.03
2019-03-25T05:49:11.203Z,7.23
2019-03-25T05:54:22.377Z,6.73
2019-03-25T05:59:34.989Z,7.10
2019-03-25T06:04:48.376Z,6.70
2019-03-25T06:09:56.475Z,7.10
2019-03-25T06:15:09.287Z,6.27
2019-03-25T06:20:19.841Z,6.10
2019-03-25T06:25:29.322Z,5.87
2019-03-25T06:30:38.335Z,5.57
2019-03-25T06:35:47.581Z,6.23
2019-03-25T06:40:55.475Z,5.20
2019-03-25T06:46:06.036Z,5.00
2019-03-25T06:51:14.685Z,5.03
2019-03-25T06:56:22.622Z,4.37
2019-03-25T07:01:31.605Z,3.97
2019-03-25T07:06:46.798Z,4.23
2019-03-25T07:11:58.149Z,4.43
2019-03-25T07:17:06.627Z,3.53
2019-03-25T07:22:14.987Z,4.20
2019-03-25T07:27:23.898Z,3.47
2019-03-25T07:32:31.927Z,3.77
2019-03-25T07:37:40.989Z,4.27
2019-03-25T07:42:48.938Z,4.20
2019-03-25T07:47:58.549Z,4.87
2019-03-25T07:53:14.343Z,5.60
2019-03-25T07:58:23.715Z,4.70
2019-03-25T08:03:33.515Z,3.97
2019-03-25T08:08:45.969Z,4.57
2019-03-25T08:13:56.358Z,5.70
2019-03-25T08:19:04.803Z,5.10
2019-03-25T08:24:13.387Z,5.63
2019-03-25T08:29:22.074Z,5.40
2019-03-25T08:34:31.366Z,5.70
2019-03-25T08:39:39.528Z,6.40
2019-03-25T08:44:48.609Z,5.97
2019-03-25T08:49:59.350Z,6.80
2019-03-25T08:55:08.616Z,6.07
2019-03-25T09:00:18.365Z,7.57
2019-03-25T09:05:26.466Z,6.50
2019-03-25T09:10:34.212Z,6.40
2019-03-25T09:15:41.870Z,7.70
2019-03-25T09:20:49.989Z,7.30
2019-03-25T09:25:58.424Z,7.63
2019-03-25T09:31:21.300Z,7.87
2019-03-25T09:36:32.275Z,7.37
2019-03-25T09:41:44.024Z,8.90
2019-03-25T09:46:53.371Z,8.50
2019-03-25T09:52:02.654Z,7.87
2019-03-25T09:57:16.371Z,7.30
2019-03-25T10:02:38.124Z,7.23
2019-03-25T10:07:50.195Z,7.50
2019-03-25T10:13:01.527Z,6.40
2019-03-25T10:18:15.568Z,6.10
2019-03-25T10:23:26.798Z,6.33
2019-03-25T10:28:34.954Z,5.33
2019-03-25T10:33:45.803Z,7.13
2019-03-25T10:38:54.404Z,6.50
2019-03-25T10:44:02.307Z,5.90
2019-03-25T10:49:11.793Z,5.57
2019-03-25T10:54:23.313Z,5.77
2019-03-25T10:59:34.267Z,4.30
2019-03-25T11:04:42.431Z,3.50
2019-03-25T11:09:50.838Z,3.27
2019-03-25T11:15:00.295Z,2.80
2019-03-25T11:20:09.140Z,2.90
2019-03-25T11:25:19.008Z,4.90
2019-03-25T11:31:01.328Z,4.87
2019-03-25T11:36:10.947Z,6.00
2019-03-25T11:41:23.690Z,8.10
2019-03-25T11:46:32.292Z,7.60
2019-03-25T11:51:40.425Z,5.70
2019-03-25T11:56:49.829Z,4.63
2019-03-25T12:01:59.763Z,5.17
2019-03-25T12:07:10.409Z,5.27
2019-03-25T12:12:27.001Z,4.20
2019-03-25T12:17:38.050Z,4.10
2019-03-25T12:22:47.185Z,3.20
2019-03-25T12:27:55.940Z,3.23
2019-03-25T12:33:11.925Z,3.47
2019-03-25T12:38:19.884Z,2.60
2019-03-25T12:43:28.214Z,2.23
2019-03-25T12:48:37.615Z,2.83
2019-03-25T12:53:46.530Z,2.80
2019-03-25T12:58:55.855Z,2.90
2019-03-25T13:04:08.106Z,2.80
2019-03-25T13:09:16.335Z,2.20
2019-03-25T13:14:27.270Z,2.60
2019-03-25T13:19:40.185Z,2.53
2019-03-25T13:24:49.667Z,2.47
2019-03-25T13:36:39.468Z,1.80
2019-03-25T13:41:48.647Z,3.40
2019-03-25T13:46:58.061Z,2.67
2019-03-25T13:52:07.079Z,2.57
2019-03-25T13:57:15.661Z,2.67
2019-03-25T14:02:25.127Z,2.00
2019-03-25T14:07:34.505Z,1.87
2019-03-25T14:12:43.498Z,1.70
2019-03-25T14:17:52.702Z,1.90
2019-03-25T14:23:02.150Z,1.97
2019-03-25T14:28:11.533Z,2.13
2019-03-25T14:33:21.236Z,2.30
2019-03-25T14:38:29.504Z,2.50
2019-03-25T14:43:44.652Z,4.03
2019-03-25T14:48:57.228Z,5.47
2019-03-25T14:54:14.135Z,4.40
2019-03-25T14:59:22.431Z,6.03
2019-03-25T15:04:33.656Z,5.63
2019-03-25T15:09:41.743Z,2.60
2019-03-25T15:14:53.873Z,2.30
2019-03-25T15:20:06.021Z,2.77
2019-03-25T15:25:18.073Z,1.40
2019-03-25T15:30:35.409Z,1.80
2019-03-25T15:35:37.864Z,1.83
2019-03-25T15:40:46.218Z,1.37
2019-03-25T15:45:54.570Z,1.97
2019-03-25T15:51:06.091Z,1.10
2019-03-25T15:56:17.714Z,1.00
2019-03-25T16:01:26.288Z,1.03
2019-03-25T16:06:45.826Z,1.03
2019-03-25T16:11:53.649Z,1.60
2019-03-25T16:17:02.665Z,1.70
2019-03-25T16:22:11.523Z,2.30
2019-03-25T16:27:21.158Z,1.87
2019-03-25T16:32:29.203Z,1.97
2019-03-25T16:37:39.211Z,2.03
2019-03-25T16:42:50.556Z,1.73
2019-03-25T16:47:58.685Z,1.80
2019-03-25T16:53:09.291Z,1.77
2019-03-25T16:58:20.305Z,1.87
2019-03-25T17:03:31.149Z,1.70
2019-03-25T17:08:40.789Z,1.47
2019-03-25T17:13:50.270Z,0.80
2019-03-25T17:18:59.394Z,1.70
2019-03-25T17:24:08.573Z,1.10
2019-03-25T17:29:20.920Z,1.20
2019-03-25T17:34:29.103Z,1.40
2019-03-25T17:39:42.597Z,2.80
2019-03-25T17:44:50.777Z,20.13
2019-03-25T17:50:01.109Z,2.30
2019-03-25T17:55:12.544Z,4.60
2019-03-25T18:00:44.931Z,2.40
2019-03-25T18:05:54.353Z,2.70
2019-03-25T18:11:04.189Z,1.97
2019-03-25T18:16:17.044Z,1.90
2019-03-25T18:21:26.448Z,2.57
2019-03-25T18:26:38.797Z,3.70
2019-03-25T18:31:47.236Z,3.37
2019-03-25T18:36:55.704Z,3.90
2019-03-25T18:42:07.491Z,4.20
2019-03-25T18:47:18.970Z,3.10
2019-03-25T18:52:30.895Z,2.70
2019-03-25T18:57:41.342Z,2.43
2019-03-25T19:02:54.845Z,2.87
2019-03-25T19:08:06.822Z,2.60
2019-03-25T19:13:17.111Z,2.90
2019-03-25T19:18:29.682Z,3.70
2019-03-25T19:23:40.437Z,3.20
2019-03-25T19:28:48.797Z,3.30
2019-03-25T19:33:59.703Z,4.07
2019-03-25T19:39:10.877Z,3.20
2019-03-25T19:44:20.445Z,3.47
2019-03-25T19:49:29.090Z,3.07
2019-03-25T19:54:39.880Z,3.10
2019-03-25T19:59:52.649Z,2.80
2019-03-25T20:05:01.915Z,3.10
2019-03-25T20:10:24.067Z,3.30
2019-03-25T20:15:46.089Z,2.90
2019-03-25T20:20:47.333Z,3.10
2019-03-25T20:25:59.641Z,2.73
2019-03-25T20:31:09.017Z,3.20
2019-03-25T20:36:21.591Z,2.90
2019-03-25T20:41:32.403Z,3.50
2019-03-25T20:46:42.565Z,2.93
2019-03-25T20:51:55.760Z,4.00
2019-03-25T20:57:03.680Z,2.90
2019-03-25T21:02:17.350Z,2.90
2019-03-25T21:07:26.422Z,3.20
2019-03-25T21:12:35.022Z,2.83
2019-03-25T21:17:44.510Z,3.20
2019-03-25T21:22:55.257Z,3.50
2019-03-25T21:28:04.385Z,3.20
2019-03-25T21:33:13.317Z,3.03
2019-03-25T21:38:21.577Z,3.60
2019-03-25T21:43:29.375Z,3.90
2019-03-25T21:48:39.887Z,3.80
2019-03-25T21:53:47.390Z,4.27
2019-03-25T21:58:55.355Z,4.03
2019-03-25T22:04:03.924Z,3.90
2019-03-25T22:09:12.364Z,4.60
2019-03-25T22:14:20.625Z,4.53
2019-03-25T22:19:29.287Z,4.50
2019-03-25T22:24:40.256Z,6.17
2019-03-25T22:29:50.605Z,6.93
2019-03-25T22:34:58.738Z,5.87
2019-03-25T22:40:07.541Z,5.53
2019-03-25T22:45:17.936Z,5.60
2019-03-25T22:50:35.857Z,5.70
2019-03-25T22:55:46.951Z,5.60
2019-03-25T23:00:55.408Z,5.70
2019-03-25T23:06:05.798Z,6.63
2019-03-25T23:11:14.864Z,6.20
2019-03-25T23:16:22.991Z,7.10
2019-03-25T23:21:32.621Z,6.40
2019-03-25T23:26:40.761Z,6.50
2019-03-25T23:31:49.284Z,7.57
2019-03-25T23:36:58.126Z,7.10
2019-03-25T23:42:08.470Z,7.23
2019-03-25T23:53:39.908Z,6.73
2019-03-25T23:58:48.069Z,6.63
